createdAt,value
2023-12-07T00:01:25.963Z,5.40
2023-12-07T00:03:54.167Z,5.40
2023-12-07T00:06:22.270Z,5.50
2023-12-07T00:08:50.422Z,5.50
2023-12-07T00:11:18.583Z,5.40
2023-12-07T00:13:46.710Z,5.50
2023-12-07T00:16:16.205Z,5.40
2023-12-07T00:18:44.341Z,5.40
2023-12-07T00:21:13.717Z,5.50
2023-12-07T00:23:41.997Z,5.40
2023-12-07T00:26:11.975Z,5.40
2023-12-07T00:28:40.187Z,5.40
2023-12-07T00:31:09.353Z,5.40
2023-12-07T00:33:38.785Z,5.40
2023-12-07T00:36:07.332Z,5.30
2023-12-07T00:38:35.421Z,5.20
2023-12-07T00:41:03.572Z,5.20
2023-12-07T00:43:31.676Z,5.30
2023-12-07T00:45:59.862Z,5.20
2023-12-07T00:48:28.004Z,5.30
2023-12-07T00:50:57.488Z,5.30
2023-12-07T00:53:25.571Z,5.30
2023-12-07T00:55:53.706Z,5.30
2023-12-07T00:58:21.836Z,5.30
2023-12-07T01:00:49.914Z,5.20
2023-12-07T01:03:18.083Z,5.30
2023-12-07T01:05:46.823Z,5.30
2023-12-07T01:08:16.762Z,5.30
2023-12-07T01:10:44.798Z,5.30
2023-12-07T01:13:13.136Z,5.20
2023-12-07T01:15:41.205Z,5.30
2023-12-07T01:18:09.286Z,5.50
2023-12-07T01:20:37.344Z,5.60
2023-12-07T01:23:05.415Z,5.60
2023-12-07T01:25:34.966Z,5.60
2023-12-07T01:28:03.250Z,5.70
2023-12-07T01:30:31.376Z,5.70
2023-12-07T01:32:59.502Z,5.70
2023-12-07T01:35:27.580Z,5.70
2023-12-07T01:37:55.719Z,5.80
2023-12-07T01:40:23.831Z,5.80
2023-12-07T01:42:54.610Z,6.00
2023-12-07T01:45:22.892Z,5.80
2023-12-07T01:47:53.706Z,5.80
2023-12-07T01:50:25.074Z,5.80
2023-12-07T01:52:59.164Z,5.70
2023-12-07T01:55:28.798Z,5.80
2023-12-07T01:57:58.448Z,5.80
2023-12-07T02:00:28.287Z,5.70
2023-12-07T02:02:57.117Z,5.70
2023-12-07T02:05:26.228Z,5.70
2023-12-07T02:07:54.572Z,5.70
2023-12-07T02:10:22.740Z,5.60
2023-12-07T02:12:51.272Z,5.60
2023-12-07T02:15:21.758Z,5.60
2023-12-07T02:17:57.923Z,5.60
2023-12-07T02:20:30.871Z,5.50
2023-12-07T02:23:03.267Z,5.50
2023-12-07T02:25:36.637Z,5.40
2023-12-07T02:28:06.250Z,5.40
2023-12-07T02:30:34.412Z,5.30
2023-12-07T02:33:02.644Z,5.30
2023-12-07T02:35:32.133Z,5.30
2023-12-07T02:38:00.852Z,5.30
2023-12-07T02:40:29.994Z,5.10
2023-12-07T02:42:59.055Z,5.10
2023-12-07T02:45:28.567Z,5.10
2023-12-07T02:47:56.735Z,5.10
2023-12-07T02:50:24.831Z,5.00
2023-12-07T02:52:53.317Z,5.10
2023-12-07T02:55:21.555Z,5.00
2023-12-07T02:57:49.602Z,5.00
2023-12-07T03:00:18.218Z,5.00
2023-12-07T03:02:48.948Z,5.00
2023-12-07T03:05:17.030Z,4.90
2023-12-07T03:07:45.064Z,4.80
2023-12-07T03:10:13.207Z,4.80
2023-12-07T03:12:41.432Z,4.80
2023-12-07T03:15:11.149Z,4.90
2023-12-07T03:17:39.275Z,4.90
2023-12-07T03:20:11.231Z,5.00
2023-12-07T03:22:39.494Z,4.90
2023-12-07T03:25:08.089Z,4.90
2023-12-07T03:27:36.252Z,4.90
2023-12-07T03:30:04.727Z,4.90
2023-12-07T03:32:33.004Z,4.90
2023-12-07T03:35:01.054Z,4.90
2023-12-07T03:37:30.514Z,4.90
2023-12-07T03:39:58.652Z,4.90
2023-12-07T03:42:49.921Z,4.80
2023-12-07T03:45:14.907Z,4.80
2023-12-07T03:47:43.089Z,4.90
2023-12-07T03:50:11.586Z,5.00
2023-12-07T03:52:41.065Z,5.10
2023-12-07T03:55:11.691Z,5.00
2023-12-07T03:57:39.821Z,5.10
2023-12-07T04:00:10.171Z,5.10
2023-12-07T04:02:38.268Z,5.10
2023-12-07T04:05:07.006Z,4.80
2023-12-07T04:07:35.528Z,4.80
2023-12-07T04:10:06.997Z,4.90
2023-12-07T04:12:35.161Z,4.90
2023-12-07T04:15:03.632Z,4.90
2023-12-07T04:17:32.737Z,4.60
2023-12-07T04:20:00.885Z,4.60
2023-12-07T04:22:30.058Z,4.70
2023-12-07T04:24:58.129Z,4.50
2023-12-07T04:27:27.488Z,4.50
2023-12-07T04:29:56.042Z,4.60
2023-12-07T04:32:24.421Z,4.60
2023-12-07T04:34:52.574Z,4.70
2023-12-07T04:37:20.721Z,4.50
2023-12-07T04:39:48.792Z,4.60
2023-12-07T04:42:16.869Z,4.40
2023-12-07T04:44:46.279Z,4.60
2023-12-07T04:47:14.417Z,4.60
2023-12-07T04:49:42.504Z,4.50
2023-12-07T04:52:10.638Z,4.40
2023-12-07T04:54:39.441Z,4.40
2023-12-07T04:57:07.709Z,4.40
2023-12-07T04:59:38.151Z,4.60
2023-12-07T05:02:08.940Z,4.40
2023-12-07T05:04:37.132Z,4.40
2023-12-07T05:07:05.744Z,4.30
2023-12-07T05:09:33.841Z,4.40
2023-12-07T05:12:01.953Z,4.50
2023-12-07T05:14:30.074Z,4.50
2023-12-07T05:16:58.156Z,4.50
2023-12-07T05:19:27.875Z,4.50
2023-12-07T05:21:56.325Z,4.50
2023-12-07T05:24:24.612Z,4.50
2023-12-07T05:26:52.881Z,4.40
2023-12-07T05:29:21.199Z,4.50
2023-12-07T05:31:50.897Z,4.50
2023-12-07T05:34:19.990Z,4.40
2023-12-07T05:36:49.494Z,4.30
2023-12-07T05:39:18.566Z,4.20
2023-12-07T05:41:48.109Z,4.30
2023-12-07T05:44:22.553Z,4.50
2023-12-07T05:46:50.999Z,4.50
2023-12-07T05:49:19.592Z,4.50
2023-12-07T05:51:49.967Z,4.40
2023-12-07T05:54:18.228Z,4.40
2023-12-07T05:56:47.605Z,4.40
2023-12-07T05:59:15.718Z,4.10
2023-12-07T06:01:44.183Z,4.20
2023-12-07T06:04:13.441Z,4.10
2023-12-07T06:06:41.886Z,4.10
2023-12-07T06:09:11.685Z,4.00
2023-12-07T06:11:39.752Z,4.10
2023-12-07T06:14:08.675Z,4.20
2023-12-07T06:16:37.276Z,4.20
2023-12-07T06:19:05.976Z,4.10
2023-12-07T06:21:34.443Z,4.10
2023-12-07T06:24:02.636Z,4.10
2023-12-07T06:26:32.046Z,4.10
2023-12-07T06:29:00.141Z,4.20
2023-12-07T06:31:28.617Z,4.20
2023-12-07T06:33:56.785Z,4.10
2023-12-07T06:36:26.995Z,4.00
2023-12-07T06:38:55.916Z,4.10
2023-12-07T06:41:24.079Z,4.00
2023-12-07T06:43:54.598Z,4.00
2023-12-07T06:46:23.819Z,4.10
2023-12-07T06:48:52.135Z,4.10
2023-12-07T06:51:20.322Z,4.00
2023-12-07T06:53:48.370Z,4.00
2023-12-07T06:56:16.968Z,4.00
2023-12-07T06:58:45.208Z,4.10
2023-12-07T07:01:15.936Z,4.20
2023-12-07T07:03:44.308Z,4.00
2023-12-07T07:06:12.412Z,3.90
2023-12-07T07:08:40.672Z,4.00
2023-12-07T07:11:14.780Z,3.90
2023-12-07T07:13:42.992Z,3.90
2023-12-07T07:16:11.461Z,3.80
2023-12-07T07:18:41.711Z,4.00
2023-12-07T07:21:10.055Z,4.00
2023-12-07T07:23:38.790Z,4.00
2023-12-07T07:26:06.837Z,4.00
2023-12-07T07:28:35.708Z,3.90
2023-12-07T07:31:05.030Z,4.00
2023-12-07T07:33:33.185Z,3.90
2023-12-07T07:36:02.976Z,4.00
2023-12-07T07:38:31.149Z,3.90
2023-12-07T07:40:59.269Z,3.90
2023-12-07T07:43:27.442Z,3.90
2023-12-07T07:45:55.539Z,3.80
2023-12-07T07:48:23.903Z,3.90
2023-12-07T07:50:52.031Z,4.00
2023-12-07T07:53:21.513Z,4.00
2023-12-07T07:55:49.639Z,3.90
2023-12-07T07:58:18.413Z,4.00
2023-12-07T08:00:47.584Z,4.10
2023-12-07T08:03:15.774Z,4.10
2023-12-07T08:05:43.858Z,4.00
2023-12-07T08:08:12.444Z,4.20
2023-12-07T08:10:54.004Z,4.10
2023-12-07T08:13:24.597Z,4.10
2023-12-07T08:15:55.057Z,4.10
2023-12-07T08:18:25.444Z,4.00
2023-12-07T08:20:53.667Z,4.10
2023-12-07T08:23:21.752Z,4.20
2023-12-07T08:25:51.308Z,4.30
2023-12-07T08:28:19.765Z,4.30
2023-12-07T08:30:47.892Z,4.30
2023-12-07T08:33:16.086Z,4.30
2023-12-07T08:35:44.231Z,4.20
2023-12-07T08:38:12.392Z,4.10
2023-12-07T08:40:40.626Z,4.20
2023-12-07T08:43:10.163Z,4.10
2023-12-07T08:45:39.482Z,4.20
2023-12-07T08:48:08.139Z,4.30
2023-12-07T08:50:36.250Z,4.40
2023-12-07T08:53:05.362Z,4.40
2023-12-07T08:55:34.002Z,4.30
2023-12-07T08:58:04.304Z,4.40
2023-12-07T09:00:34.509Z,4.50
2023-12-07T09:03:03.189Z,4.40
2023-12-07T09:05:32.197Z,4.50
2023-12-07T09:08:00.664Z,4.50
2023-12-07T09:10:29.155Z,4.50
2023-12-07T09:12:57.623Z,4.60
2023-12-07T09:15:25.942Z,4.60
2023-12-07T09:17:55.599Z,4.60
2023-12-07T09:20:24.492Z,4.60
2023-12-07T09:22:52.895Z,4.50
2023-12-07T09:25:21.133Z,4.50
2023-12-07T09:27:49.954Z,4.40
2023-12-07T09:30:18.081Z,4.50
2023-12-07T09:32:46.592Z,4.60
2023-12-07T09:35:20.495Z,4.60
2023-12-07T09:37:50.212Z,4.60
2023-12-07T09:40:19.653Z,4.70
2023-12-07T09:42:48.185Z,4.70
2023-12-07T09:45:19.288Z,4.70
2023-12-07T09:47:50.319Z,4.70
2023-12-07T09:50:22.687Z,4.70
2023-12-07T09:53:00.275Z,4.70
2023-12-07T09:55:34.728Z,4.80
2023-12-07T09:58:05.674Z,4.70
2023-12-07T10:00:34.230Z,4.70
2023-12-07T10:03:02.419Z,4.80
2023-12-07T10:05:32.143Z,4.80
2023-12-07T10:08:00.259Z,4.70
2023-12-07T10:10:28.499Z,4.70
2023-12-07T10:12:58.509Z,4.90
2023-12-07T10:15:27.272Z,4.90
2023-12-07T10:17:58.044Z,4.90
2023-12-07T10:20:28.157Z,5.00
2023-12-07T10:23:09.223Z,5.10
2023-12-07T10:25:39.277Z,5.10
2023-12-07T10:28:09.315Z,5.20
2023-12-07T10:30:40.581Z,5.20
2023-12-07T10:33:09.776Z,5.10
2023-12-07T10:35:41.602Z,5.10
2023-12-07T10:38:11.692Z,5.20
2023-12-07T10:40:39.800Z,5.20
2023-12-07T10:43:09.073Z,5.30
2023-12-07T10:45:39.002Z,5.20
2023-12-07T10:48:09.454Z,5.30
2023-12-07T10:50:43.156Z,5.30
2023-12-07T10:53:17.293Z,5.30
2023-12-07T10:55:49.812Z,5.30
2023-12-07T10:58:19.784Z,5.40
2023-12-07T11:00:49.501Z,5.40
2023-12-07T11:03:20.070Z,5.40
2023-12-07T11:05:49.048Z,5.40
2023-12-07T11:08:28.409Z,5.50
2023-12-07T11:11:06.934Z,5.50
2023-12-07T11:13:38.311Z,5.50
2023-12-07T11:16:07.579Z,5.50
2023-12-07T11:18:35.884Z,5.50
2023-12-07T11:21:04.389Z,5.50
2023-12-07T11:23:34.042Z,5.50
2023-12-07T11:26:02.219Z,5.60
2023-12-07T11:28:38.185Z,5.60
2023-12-07T11:31:08.807Z,5.50
2023-12-07T11:33:40.008Z,5.50
2023-12-07T11:36:10.043Z,5.40
2023-12-07T11:38:40.687Z,5.50
2023-12-07T11:41:09.438Z,5.50
2023-12-07T11:43:48.160Z,5.50
2023-12-07T11:46:16.639Z,5.50
2023-12-07T11:48:51.493Z,5.40
2023-12-07T11:51:20.131Z,5.40
2023-12-07T11:53:51.423Z,5.30
2023-12-07T11:56:22.498Z,5.30
2023-12-07T11:58:51.715Z,5.30
2023-12-07T12:01:19.947Z,5.30
2023-12-07T12:03:48.077Z,5.20
2023-12-07T12:06:16.340Z,5.30
2023-12-07T12:08:44.844Z,5.10
2023-12-07T12:11:14.280Z,5.20
2023-12-07T12:13:43.347Z,5.20
2023-12-07T12:16:11.651Z,5.30
2023-12-07T12:18:39.889Z,5.30
2023-12-07T12:21:10.081Z,5.30
2023-12-07T12:23:38.813Z,5.30
2023-12-07T12:26:08.538Z,5.30
2023-12-07T12:28:43.340Z,5.30
2023-12-07T12:31:13.481Z,5.20
2023-12-07T12:33:41.945Z,5.30
2023-12-07T12:36:11.726Z,5.30
2023-12-07T12:38:43.099Z,5.20
2023-12-07T12:41:13.900Z,5.20
2023-12-07T12:43:46.028Z,5.30
2023-12-07T12:46:15.068Z,5.30
2023-12-07T12:48:57.030Z,5.30
2023-12-07T12:51:27.775Z,5.30
2023-12-07T12:53:57.089Z,5.30
2023-12-07T12:56:25.422Z,5.20
2023-12-07T12:59:01.009Z,5.30
2023-12-07T13:01:32.907Z,5.30
2023-12-07T13:04:01.103Z,5.40
2023-12-07T13:06:29.913Z,5.30
2023-12-07T13:08:58.719Z,5.30
2023-12-07T13:11:27.514Z,5.30
2023-12-07T13:13:57.025Z,5.30
2023-12-07T13:16:25.116Z,5.30
2023-12-07T13:18:54.536Z,5.30
2023-12-07T13:21:23.174Z,5.30
2023-12-07T13:23:51.369Z,5.40
2023-12-07T13:26:21.233Z,5.40
2023-12-07T13:28:49.345Z,5.30
2023-12-07T13:31:18.818Z,5.30
2023-12-07T13:33:53.751Z,5.40
2023-12-07T13:36:27.066Z,5.40
2023-12-07T13:38:55.286Z,5.40
2023-12-07T13:41:23.465Z,5.30
2023-12-07T13:43:52.489Z,5.30
2023-12-07T13:46:22.159Z,5.40
2023-12-07T13:48:50.750Z,5.30
2023-12-07T13:51:19.826Z,5.30
2023-12-07T13:53:49.803Z,5.40
2023-12-07T13:56:17.926Z,5.30
2023-12-07T13:58:46.005Z,5.20
2023-12-07T14:01:14.313Z,5.20
2023-12-07T14:03:43.732Z,5.20
2023-12-07T14:06:18.392Z,5.30
2023-12-07T14:08:53.264Z,5.30
2023-12-07T14:11:21.335Z,5.20
2023-12-07T14:13:49.793Z,5.10
2023-12-07T14:16:25.009Z,5.10
2023-12-07T14:21:54.588Z,5.20
2023-12-07T14:24:25.105Z,5.20
2023-12-07T14:26:54.025Z,5.20
2023-12-07T14:29:26.853Z,5.20
2023-12-07T14:31:56.216Z,5.30
2023-12-07T14:34:33.741Z,5.20
2023-12-07T14:37:06.769Z,5.30
2023-12-07T14:39:35.770Z,5.20
2023-12-07T14:42:03.983Z,5.20
2023-12-07T14:44:32.192Z,5.30
2023-12-07T14:47:01.096Z,5.30
2023-12-07T14:49:30.578Z,5.40
2023-12-07T14:52:00.359Z,5.40
2023-12-07T14:54:30.433Z,5.40
2023-12-07T14:56:59.567Z,5.30
2023-12-07T14:59:27.938Z,5.20
2023-12-07T15:01:56.043Z,5.30
2023-12-07T15:04:30.906Z,5.40
2023-12-07T15:07:04.275Z,5.40
2023-12-07T15:09:32.500Z,5.40
2023-12-07T15:12:00.772Z,5.40
2023-12-07T15:14:36.728Z,5.30
2023-12-07T15:17:09.586Z,5.40
2023-12-07T15:19:39.010Z,5.30
2023-12-07T15:22:08.901Z,5.40
2023-12-07T15:24:37.706Z,5.30
2023-12-07T15:27:07.505Z,5.30
2023-12-07T15:29:36.805Z,5.40
2023-12-07T15:32:06.332Z,5.40
2023-12-07T15:34:39.225Z,5.40
2023-12-07T15:37:13.897Z,5.30
2023-12-07T15:39:43.152Z,5.30
2023-12-07T15:42:12.088Z,5.30
2023-12-07T15:44:40.343Z,5.20
2023-12-07T15:47:08.667Z,5.30
2023-12-07T15:49:37.738Z,5.20
2023-12-07T15:52:06.995Z,5.20
2023-12-07T15:54:39.971Z,5.30
2023-12-07T15:57:10.674Z,5.20
2023-12-07T15:59:40.174Z,5.30
2023-12-07T16:02:08.754Z,5.30
2023-12-07T16:04:37.655Z,5.30
2023-12-07T16:07:08.743Z,5.10
2023-12-07T16:09:42.095Z,5.20
2023-12-07T16:12:10.903Z,5.20
2023-12-07T16:14:40.204Z,5.10
2023-12-07T16:17:09.878Z,5.20
2023-12-07T16:19:38.781Z,5.30
2023-12-07T16:22:07.975Z,5.20
2023-12-07T16:24:36.567Z,5.20
2023-12-07T16:27:08.334Z,5.20
2023-12-07T16:29:38.165Z,5.10
2023-12-07T16:32:07.568Z,5.00
2023-12-07T16:34:35.770Z,5.00
2023-12-07T16:37:04.035Z,5.10
2023-12-07T16:39:32.430Z,5.10
2023-12-07T16:42:02.746Z,5.00
2023-12-07T16:44:33.492Z,4.90
2023-12-07T16:47:01.744Z,5.00
2023-12-07T16:49:30.713Z,5.00
2023-12-07T16:52:00.572Z,5.10
2023-12-07T16:54:28.722Z,5.00
2023-12-07T16:56:56.906Z,5.10
2023-12-07T16:59:25.122Z,5.00
2023-12-07T17:01:54.578Z,5.00
2023-12-07T17:04:22.958Z,5.10
2023-12-07T17:06:56.755Z,5.10
2023-12-07T17:09:27.267Z,5.10
2023-12-07T17:11:55.940Z,5.00
2023-12-07T17:14:24.212Z,4.90
2023-12-07T17:16:53.778Z,5.10
2023-12-07T17:19:22.186Z,5.10
2023-12-07T17:21:51.656Z,5.10
2023-12-07T17:24:21.183Z,5.00
2023-12-07T17:26:53.121Z,5.00
2023-12-07T17:29:23.526Z,5.00
2023-12-07T17:31:52.001Z,5.00
2023-12-07T17:34:23.012Z,5.10
2023-12-07T17:36:51.292Z,4.90
2023-12-07T17:39:19.775Z,5.00
2023-12-07T17:41:48.668Z,5.00
2023-12-07T17:44:17.304Z,5.10
2023-12-07T17:46:48.139Z,5.10
2023-12-07T17:49:16.540Z,5.00
2023-12-07T17:51:46.012Z,5.00
2023-12-07T17:54:16.105Z,5.00
2023-12-07T17:56:44.573Z,5.10
2023-12-07T17:59:13.702Z,5.00
2023-12-07T18:01:41.859Z,5.00
2023-12-07T18:04:10.221Z,5.00
2023-12-07T18:06:38.453Z,5.00
2023-12-07T18:09:08.286Z,5.00
2023-12-07T18:11:36.569Z,5.10
2023-12-07T18:14:04.668Z,5.10
2023-12-07T18:16:32.803Z,5.00
2023-12-07T18:19:01.077Z,5.00
2023-12-07T18:21:30.427Z,5.00
2023-12-07T18:23:58.553Z,5.00
2023-12-07T18:26:29.255Z,5.00
2023-12-07T18:28:57.420Z,4.90
2023-12-07T18:31:25.604Z,5.10
2023-12-07T18:33:53.767Z,5.00
2023-12-07T18:36:21.971Z,5.10
2023-12-07T18:38:50.161Z,4.90
2023-12-07T18:41:18.360Z,5.00
2023-12-07T18:43:47.786Z,5.00
2023-12-07T18:46:17.819Z,5.00
2023-12-07T18:48:46.047Z,5.00
2023-12-07T18:51:14.301Z,4.90
2023-12-07T18:53:42.356Z,4.80
2023-12-07T18:56:11.641Z,5.00
2023-12-07T18:58:40.312Z,5.00
2023-12-07T19:01:09.809Z,5.00
2023-12-07T19:03:37.902Z,5.00
2023-12-07T19:06:07.019Z,5.00
2023-12-07T19:08:36.115Z,4.90
2023-12-07T19:11:05.032Z,4.90
2023-12-07T19:13:33.191Z,4.80
2023-12-07T19:16:01.320Z,4.80
2023-12-07T19:18:34.213Z,4.60
2023-12-07T19:21:02.794Z,4.60
2023-12-07T19:23:31.068Z,4.60
2023-12-07T19:25:59.202Z,4.60
2023-12-07T19:28:27.338Z,4.70
2023-12-07T19:30:55.893Z,4.60
2023-12-07T19:33:24.373Z,4.50
2023-12-07T19:35:53.956Z,4.50
2023-12-07T19:38:22.455Z,4.40
2023-12-07T19:40:50.600Z,4.30
2023-12-07T19:43:18.651Z,4.30
2023-12-07T19:45:46.731Z,4.40
2023-12-07T19:48:14.945Z,4.30
2023-12-07T19:50:43.620Z,4.20
2023-12-07T19:53:13.229Z,4.20
2023-12-07T19:55:41.429Z,4.30
2023-12-07T19:58:09.697Z,4.20
2023-12-07T20:00:37.996Z,4.20
2023-12-07T20:03:06.163Z,4.30
2023-12-07T20:05:34.359Z,4.20
2023-12-07T20:08:03.529Z,4.10
2023-12-07T20:10:34.752Z,4.10
2023-12-07T20:13:02.899Z,4.10
2023-12-07T20:15:30.972Z,4.20
2023-12-07T20:17:59.119Z,4.10
2023-12-07T20:20:27.432Z,4.10
2023-12-07T20:22:58.478Z,4.10
2023-12-07T20:25:26.941Z,4.30
2023-12-07T20:27:56.452Z,4.20
2023-12-07T20:30:24.991Z,4.20
2023-12-07T20:32:53.424Z,4.10
2023-12-07T20:35:21.707Z,4.20
2023-12-07T20:37:49.829Z,4.10
2023-12-07T20:40:17.986Z,4.10
2023-12-07T20:42:46.153Z,4.10
2023-12-07T20:45:15.783Z,4.20
2023-12-07T20:47:44.079Z,4.10
2023-12-07T20:50:13.679Z,4.10
2023-12-07T20:52:42.156Z,4.20
2023-12-07T20:55:11.231Z,4.20
2023-12-07T20:57:39.390Z,4.20
2023-12-07T21:00:09.906Z,4.20
2023-12-07T21:02:39.726Z,4.20
2023-12-07T21:05:08.964Z,4.20
2023-12-07T21:07:37.140Z,4.30
2023-12-07T21:10:06.054Z,4.20
2023-12-07T21:12:35.183Z,4.30
2023-12-07T21:15:05.561Z,4.20
2023-12-07T21:17:33.899Z,4.30
2023-12-07T21:20:03.975Z,4.20
2023-12-07T21:22:33.560Z,4.20
2023-12-07T21:25:01.611Z,4.30
2023-12-07T21:27:30.476Z,4.40
2023-12-07T21:29:58.842Z,4.30
2023-12-07T21:32:27.163Z,4.20
2023-12-07T21:34:55.300Z,4.30
2023-12-07T21:37:24.974Z,4.30
2023-12-07T21:39:54.554Z,4.30
2023-12-07T21:42:22.610Z,4.30
2023-12-07T21:44:50.681Z,4.30
2023-12-07T21:47:18.835Z,4.30
2023-12-07T21:49:46.928Z,4.30
2023-12-07T21:52:15.388Z,4.30
2023-12-07T21:54:44.799Z,4.30
2023-12-07T21:57:13.009Z,4.50
2023-12-07T21:59:41.159Z,4.30
2023-12-07T22:02:09.362Z,4.20
2023-12-07T22:04:37.919Z,4.30
2023-12-07T22:07:06.807Z,4.30
2023-12-07T22:09:34.941Z,4.40
2023-12-07T22:12:04.878Z,4.40
2023-12-07T22:14:33.036Z,4.30
2023-12-07T22:17:01.119Z,4.30
2023-12-07T22:19:29.293Z,4.40
2023-12-07T22:21:57.453Z,4.30
2023-12-07T22:24:25.539Z,4.20
2023-12-07T22:26:53.752Z,4.20
2023-12-07T22:29:23.334Z,4.30
2023-12-07T22:31:51.464Z,4.20
2023-12-07T22:34:19.682Z,4.30
2023-12-07T22:36:48.804Z,4.30
2023-12-07T22:39:16.917Z,4.30
2023-12-07T22:41:45.326Z,4.20
2023-12-07T22:44:13.961Z,4.30
2023-12-07T22:46:46.113Z,4.40
2023-12-07T22:49:15.049Z,4.40
2023-12-07T22:51:43.546Z,4.30
2023-12-07T22:54:11.665Z,4.40
2023-12-07T22:56:39.742Z,4.40
2023-12-07T22:59:07.880Z,4.40
2023-12-07T23:01:36.047Z,4.40
2023-12-07T23:04:05.706Z,4.40
2023-12-07T23:06:33.891Z,4.40
2023-12-07T23:09:02.091Z,4.30
2023-12-07T23:11:30.360Z,4.30
2023-12-07T23:13:58.729Z,4.40
2023-12-07T23:16:28.352Z,4.50
2023-12-07T23:18:56.622Z,4.40
2023-12-07T23:21:26.167Z,4.40
2023-12-07T23:23:54.348Z,4.50
2023-12-07T23:26:22.464Z,4.50
2023-12-07T23:28:50.827Z,4.60
2023-12-07T23:31:19.420Z,4.60
2023-12-07T23:33:47.694Z,4.60
2023-12-07T23:36:16.936Z,4.50
2023-12-07T23:38:46.616Z,4.40
2023-12-07T23:41:14.712Z,4.50
2023-12-07T23:43:43.370Z,4.50
2023-12-07T23:46:11.689Z,4.60
2023-12-07T23:48:39.950Z,4.60
2023-12-07T23:51:10.482Z,4.60
2023-12-07T23:53:38.714Z,4.50
2023-12-07T23:56:09.526Z,4.60
2023-12-07T23:58:45.119Z,4.60
